sensor_id;sensor_type;location;lat;lon;timestamp;pressure;altitude;pressure_sealevel;temperature
12875;BMP180;6505;51.114;13.128;2022-12-11T00:00:06;98853.00;;;8.10
12875;BMP180;6505;51.114;13.128;2022-12-11T00:02:35;98854.00;;;8.10
12875;BMP180;6505;51.114;13.128;2022-12-11T00:05:04;98850.00;;;8.10
12875;BMP180;6505;51.114;13.128;2022-12-11T00:07:34;98856.00;;;8.10
12875;BMP180;6505;51.114;13.128;2022-12-11T00:10:03;98851.00;;;8.10
12875;BMP180;6505;51.114;13.128;2022-12-11T00:12:31;98846.00;;;8.10
12875;BMP180;6505;51.114;13.128;2022-12-11T00:15:00;98857.00;;;8.10
12875;BMP180;6505;51.114;13.128;2022-12-11T00:17:28;98852.00;;;8.10
12875;BMP180;6505;51.114;13.128;2022-12-11T00:19:56;98841.00;;;8.10
12875;BMP180;6505;51.114;13.128;2022-12-11T00:22:24;98846.00;;;8.10
12875;BMP180;6505;51.114;13.128;2022-12-11T00:24:53;98857.00;;;8.10
12875;BMP180;6505;51.114;13.128;2022-12-11T00:27:21;98840.00;;;8.10
12875;BMP180;6505;51.114;13.128;2022-12-11T00:29:50;98832.00;;;8.00
12875;BMP180;6505;51.114;13.128;2022-12-11T00:32:18;98853.00;;;8.10
12875;BMP180;6505;51.114;13.128;2022-12-11T00:34:46;98851.00;;;8.00
12875;BMP180;6505;51.114;13.128;2022-12-11T00:37:14;98847.00;;;8.00
12875;BMP180;6505;51.114;13.128;2022-12-11T00:39:42;98848.00;;;8.00
12875;BMP180;6505;51.114;13.128;2022-12-11T00:42:12;98846.00;;;8.00
12875;BMP180;6505;51.114;13.128;2022-12-11T00:44:41;98852.00;;;8.00
12875;BMP180;6505;51.114;13.128;2022-12-11T00:47:09;98854.00;;;8.00
12875;BMP180;6505;51.114;13.128;2022-12-11T00:49:37;98853.00;;;8.00
12875;BMP180;6505;51.114;13.128;2022-12-11T00:52:05;98851.00;;;8.00
12875;BMP180;6505;51.114;13.128;2022-12-11T00:54:33;98849.00;;;8.00
12875;BMP180;6505;51.114;13.128;2022-12-11T00:57:01;98855.00;;;8.00
12875;BMP180;6505;51.114;13.128;2022-12-11T00:59:31;98860.00;;;8.00
12875;BMP180;6505;51.114;13.128;2022-12-11T01:01:59;98864.00;;;8.00
12875;BMP180;6505;51.114;13.128;2022-12-11T01:04:27;98850.00;;;8.00
12875;BMP180;6505;51.114;13.128;2022-12-11T01:06:55;98855.00;;;8.00
12875;BMP180;6505;51.114;13.128;2022-12-11T01:09:23;98854.00;;;8.00
12875;BMP180;6505;51.114;13.128;2022-12-11T01:12:12;98861.00;;;8.00
12875;BMP180;6505;51.114;13.128;2022-12-11T01:14:42;98862.00;;;8.00
12875;BMP180;6505;51.114;13.128;2022-12-11T01:17:10;98866.00;;;8.00
12875;BMP180;6505;51.114;13.128;2022-12-11T01:19:38;98851.00;;;8.00
12875;BMP180;6505;51.114;13.128;2022-12-11T01:22:06;98869.00;;;8.00
12875;BMP180;6505;51.114;13.128;2022-12-11T01:24:34;98867.00;;;8.00
12875;BMP180;6505;51.114;13.128;2022-12-11T01:27:03;98868.00;;;8.00
12875;BMP180;6505;51.114;13.128;2022-12-11T01:29:31;98864.00;;;8.00
12875;BMP180;6505;51.114;13.128;2022-12-11T01:32:01;98867.00;;;8.00
12875;BMP180;6505;51.114;13.128;2022-12-11T01:34:29;98872.00;;;7.90
12875;BMP180;6505;51.114;13.128;2022-12-11T01:36:57;98875.00;;;7.90
12875;BMP180;6505;51.114;13.128;2022-12-11T01:39:25;98874.00;;;8.00
12875;BMP180;6505;51.114;13.128;2022-12-11T01:41:56;98864.00;;;7.90
12875;BMP180;6505;51.114;13.128;2022-12-11T01:48:00;98880.00;;;7.90
12875;BMP180;6505;51.114;13.128;2022-12-11T01:50:33;98874.00;;;7.90
12875;BMP180;6505;51.114;13.128;2022-12-11T01:53:05;98872.00;;;7.90
12875;BMP180;6505;51.114;13.128;2022-12-11T01:55:36;98881.00;;;7.90
12875;BMP180;6505;51.114;13.128;2022-12-11T01:58:07;98879.00;;;7.90
12875;BMP180;6505;51.114;13.128;2022-12-11T02:00:35;98873.00;;;7.90
12875;BMP180;6505;51.114;13.128;2022-12-11T02:03:05;98861.00;;;7.90
12875;BMP180;6505;51.114;13.128;2022-12-11T02:05:33;98874.00;;;7.90
12875;BMP180;6505;51.114;13.128;2022-12-11T02:08:03;98870.00;;;7.90
12875;BMP180;6505;51.114;13.128;2022-12-11T02:10:48;98866.00;;;7.90
12875;BMP180;6505;51.114;13.128;2022-12-11T02:13:23;98862.00;;;7.80
12875;BMP180;6505;51.114;13.128;2022-12-11T02:16:05;98869.00;;;7.90
12875;BMP180;6505;51.114;13.128;2022-12-11T02:18:48;98871.00;;;7.80
12875;BMP180;6505;51.114;13.128;2022-12-11T02:21:25;98873.00;;;7.80
12875;BMP180;6505;51.114;13.128;2022-12-11T02:24:51;98860.00;;;7.80
12875;BMP180;6505;51.114;13.128;2022-12-11T02:27:35;98865.00;;;7.80
12875;BMP180;6505;51.114;13.128;2022-12-11T02:30:08;98858.00;;;7.80
12875;BMP180;6505;51.114;13.128;2022-12-11T02:32:44;98850.00;;;7.80
12875;BMP180;6505;51.114;13.128;2022-12-11T02:35:18;98861.00;;;7.80
12875;BMP180;6505;51.114;13.128;2022-12-11T02:37:55;98857.00;;;7.80
12875;BMP180;6505;51.114;13.128;2022-12-11T02:40:29;98859.00;;;7.80
12875;BMP180;6505;51.114;13.128;2022-12-11T02:43:03;98861.00;;;7.80
12875;BMP180;6505;51.114;13.128;2022-12-11T02:45:35;98860.00;;;7.80
12875;BMP180;6505;51.114;13.128;2022-12-11T02:48:06;98855.00;;;7.80
12875;BMP180;6505;51.114;13.128;2022-12-11T02:50:44;98856.00;;;7.80
12875;BMP180;6505;51.114;13.128;2022-12-11T02:53:18;98856.00;;;7.80
12875;BMP180;6505;51.114;13.128;2022-12-11T02:55:52;98857.00;;;7.80
12875;BMP180;6505;51.114;13.128;2022-12-11T02:58:29;98853.00;;;7.80
12875;BMP180;6505;51.114;13.128;2022-12-11T03:01:00;98851.00;;;7.80
12875;BMP180;6505;51.114;13.128;2022-12-11T03:03:29;98859.00;;;7.80
12875;BMP180;6505;51.114;13.128;2022-12-11T03:05:57;98862.00;;;7.80
12875;BMP180;6505;51.114;13.128;2022-12-11T03:08:26;98857.00;;;7.80
12875;BMP180;6505;51.114;13.128;2022-12-11T03:10:54;98852.00;;;7.80
12875;BMP180;6505;51.114;13.128;2022-12-11T03:13:22;98852.00;;;7.80
12875;BMP180;6505;51.114;13.128;2022-12-11T03:16:07;98849.00;;;7.70
12875;BMP180;6505;51.114;13.128;2022-12-11T03:18:46;98852.00;;;7.70
12875;BMP180;6505;51.114;13.128;2022-12-11T03:21:24;98853.00;;;7.80
12875;BMP180;6505;51.114;13.128;2022-12-11T03:24:01;98851.00;;;7.80
12875;BMP180;6505;51.114;13.128;2022-12-11T03:26:36;98855.00;;;7.70
12875;BMP180;6505;51.114;13.128;2022-12-11T03:29:17;98859.00;;;7.70
12875;BMP180;6505;51.114;13.128;2022-12-11T03:31:56;98860.00;;;7.70
12875;BMP180;6505;51.114;13.128;2022-12-11T03:34:31;98857.00;;;7.70
12875;BMP180;6505;51.114;13.128;2022-12-11T03:37:04;98864.00;;;7.80
12875;BMP180;6505;51.114;13.128;2022-12-11T03:39:37;98855.00;;;7.70
12875;BMP180;6505;51.114;13.128;2022-12-11T03:42:12;98851.00;;;7.70
12875;BMP180;6505;51.114;13.128;2022-12-11T03:44:57;98848.00;;;7.70
12875;BMP180;6505;51.114;13.128;2022-12-11T03:47:31;98849.00;;;7.70
12875;BMP180;6505;51.114;13.128;2022-12-11T03:50:03;98846.00;;;7.70
12875;BMP180;6505;51.114;13.128;2022-12-11T03:52:33;98854.00;;;7.70
12875;BMP180;6505;51.114;13.128;2022-12-11T03:55:15;98854.00;;;7.70
12875;BMP180;6505;51.114;13.128;2022-12-11T03:57:44;98853.00;;;7.70
12875;BMP180;6505;51.114;13.128;2022-12-11T04:00:16;98843.00;;;7.70
12875;BMP180;6505;51.114;13.128;2022-12-11T04:02:46;98856.00;;;7.70
12875;BMP180;6505;51.114;13.128;2022-12-11T04:05:45;98859.00;;;7.60
12875;BMP180;6505;51.114;13.128;2022-12-11T04:08:14;98844.00;;;7.70
12875;BMP180;6505;51.114;13.128;2022-12-11T04:10:43;98856.00;;;7.70
12875;BMP180;6505;51.114;13.128;2022-12-11T04:13:11;98866.00;;;7.70
12875;BMP180;6505;51.114;13.128;2022-12-11T04:15:40;98864.00;;;7.70
12875;BMP180;6505;51.114;13.128;2022-12-11T04:18:09;98874.00;;;7.70
12875;BMP180;6505;51.114;13.128;2022-12-11T04:21:10;98874.00;;;7.70
12875;BMP180;6505;51.114;13.128;2022-12-11T04:24:01;98879.00;;;7.70
12875;BMP180;6505;51.114;13.128;2022-12-11T04:26:45;98881.00;;;7.60
12875;BMP180;6505;51.114;13.128;2022-12-11T04:29:14;98878.00;;;7.70
12875;BMP180;6505;51.114;13.128;2022-12-11T04:31:42;98876.00;;;7.70
12875;BMP180;6505;51.114;13.128;2022-12-11T04:34:13;98861.00;;;7.60
12875;BMP180;6505;51.114;13.128;2022-12-11T04:36:41;98866.00;;;7.70
12875;BMP180;6505;51.114;13.128;2022-12-11T04:39:09;98851.00;;;7.70
12875;BMP180;6505;51.114;13.128;2022-12-11T04:41:38;98869.00;;;7.70
12875;BMP180;6505;51.114;13.128;2022-12-11T04:44:07;98869.00;;;7.60
12875;BMP180;6505;51.114;13.128;2022-12-11T04:46:35;98862.00;;;7.70
12875;BMP180;6505;51.114;13.128;2022-12-11T04:49:04;98864.00;;;7.70
12875;BMP180;6505;51.114;13.128;2022-12-11T04:51:33;98860.00;;;7.70
12875;BMP180;6505;51.114;13.128;2022-12-11T04:54:01;98868.00;;;7.70
12875;BMP180;6505;51.114;13.128;2022-12-11T04:56:29;98860.00;;;7.60
12875;BMP180;6505;51.114;13.128;2022-12-11T04:58:57;98855.00;;;7.70
12875;BMP180;6505;51.114;13.128;2022-12-11T05:01:25;98857.00;;;7.70
12875;BMP180;6505;51.114;13.128;2022-12-11T05:03:54;98860.00;;;7.60
12875;BMP180;6505;51.114;13.128;2022-12-11T05:06:22;98858.00;;;7.60
12875;BMP180;6505;51.114;13.128;2022-12-11T05:08:51;98858.00;;;7.60
12875;BMP180;6505;51.114;13.128;2022-12-11T05:11:19;98860.00;;;7.60
12875;BMP180;6505;51.114;13.128;2022-12-11T05:13:48;98855.00;;;7.60
12875;BMP180;6505;51.114;13.128;2022-12-11T05:16:16;98852.00;;;7.60
12875;BMP180;6505;51.114;13.128;2022-12-11T05:18:45;98845.00;;;7.60
12875;BMP180;6505;51.114;13.128;2022-12-11T05:21:14;98856.00;;;7.60
12875;BMP180;6505;51.114;13.128;2022-12-11T05:23:43;98847.00;;;7.60
12875;BMP180;6505;51.114;13.128;2022-12-11T05:26:16;98839.00;;;7.60
12875;BMP180;6505;51.114;13.128;2022-12-11T05:28:46;98838.00;;;7.60
12875;BMP180;6505;51.114;13.128;2022-12-11T05:31:21;98812.00;;;7.60
12875;BMP180;6505;51.114;13.128;2022-12-11T05:33:50;98827.00;;;7.60
12875;BMP180;6505;51.114;13.128;2022-12-11T05:36:22;98833.00;;;7.60
12875;BMP180;6505;51.114;13.128;2022-12-11T05:38:51;98831.00;;;7.60
12875;BMP180;6505;51.114;13.128;2022-12-11T05:41:24;98826.00;;;7.50
12875;BMP180;6505;51.114;13.128;2022-12-11T05:43:53;98826.00;;;7.60
12875;BMP180;6505;51.114;13.128;2022-12-11T05:46:24;98822.00;;;7.50
12875;BMP180;6505;51.114;13.128;2022-12-11T05:48:56;98825.00;;;7.50
12875;BMP180;6505;51.114;13.128;2022-12-11T05:51:26;98805.00;;;7.50
12875;BMP180;6505;51.114;13.128;2022-12-11T05:53:56;98829.00;;;7.50
12875;BMP180;6505;51.114;13.128;2022-12-11T05:56:28;98831.00;;;7.50
12875;BMP180;6505;51.114;13.128;2022-12-11T05:58:58;98828.00;;;7.50
12875;BMP180;6505;51.114;13.128;2022-12-11T06:01:29;98832.00;;;7.50
12875;BMP180;6505;51.114;13.128;2022-12-11T06:03:59;98825.00;;;7.50
12875;BMP180;6505;51.114;13.128;2022-12-11T06:06:28;98831.00;;;7.50
12875;BMP180;6505;51.114;13.128;2022-12-11T06:09:00;98835.00;;;7.50
12875;BMP180;6505;51.114;13.128;2022-12-11T06:11:32;98835.00;;;7.50
12875;BMP180;6505;51.114;13.128;2022-12-11T06:14:01;98836.00;;;7.50
12875;BMP180;6505;51.114;13.128;2022-12-11T06:16:31;98837.00;;;7.50
12875;BMP180;6505;51.114;13.128;2022-12-11T06:18:59;98795.00;;;7.50
12875;BMP180;6505;51.114;13.128;2022-12-11T06:21:29;98838.00;;;7.50
12875;BMP180;6505;51.114;13.128;2022-12-11T06:24:00;98837.00;;;7.50
12875;BMP180;6505;51.114;13.128;2022-12-11T06:26:30;98837.00;;;7.50
12875;BMP180;6505;51.114;13.128;2022-12-11T06:28:58;98834.00;;;7.40
12875;BMP180;6505;51.114;13.128;2022-12-11T06:31:27;98839.00;;;7.40
12875;BMP180;6505;51.114;13.128;2022-12-11T06:33:55;98829.00;;;7.50
12875;BMP180;6505;51.114;13.128;2022-12-11T06:36:23;98833.00;;;7.40
12875;BMP180;6505;51.114;13.128;2022-12-11T06:38:53;98837.00;;;7.40
12875;BMP180;6505;51.114;13.128;2022-12-11T06:41:22;98830.00;;;7.50
12875;BMP180;6505;51.114;13.128;2022-12-11T06:43:54;98832.00;;;7.40
12875;BMP180;6505;51.114;13.128;2022-12-11T06:46:22;98837.00;;;7.40
12875;BMP180;6505;51.114;13.128;2022-12-11T06:48:51;98835.00;;;7.40
12875;BMP180;6505;51.114;13.128;2022-12-11T06:51:21;98827.00;;;7.40
12875;BMP180;6505;51.114;13.128;2022-12-11T06:53:51;98827.00;;;7.40
12875;BMP180;6505;51.114;13.128;2022-12-11T06:56:21;98826.00;;;7.40
12875;BMP180;6505;51.114;13.128;2022-12-11T06:58:50;98830.00;;;7.40
12875;BMP180;6505;51.114;13.128;2022-12-11T07:01:22;98843.00;;;7.40
12875;BMP180;6505;51.114;13.128;2022-12-11T07:03:52;98823.00;;;7.40
12875;BMP180;6505;51.114;13.128;2022-12-11T07:06:21;98839.00;;;7.40
12875;BMP180;6505;51.114;13.128;2022-12-11T07:08:50;98850.00;;;7.40
12875;BMP180;6505;51.114;13.128;2022-12-11T07:11:19;98843.00;;;7.40
12875;BMP180;6505;51.114;13.128;2022-12-11T07:13:48;98847.00;;;7.40
12875;BMP180;6505;51.114;13.128;2022-12-11T07:16:17;98848.00;;;7.40
12875;BMP180;6505;51.114;13.128;2022-12-11T07:18:49;98841.00;;;7.40
12875;BMP180;6505;51.114;13.128;2022-12-11T07:21:18;98827.00;;;7.40
12875;BMP180;6505;51.114;13.128;2022-12-11T07:23:47;98850.00;;;7.40
12875;BMP180;6505;51.114;13.128;2022-12-11T07:26:19;98851.00;;;7.40
12875;BMP180;6505;51.114;13.128;2022-12-11T07:28:48;98832.00;;;7.40
12875;BMP180;6505;51.114;13.128;2022-12-11T07:31:20;98852.00;;;7.40
12875;BMP180;6505;51.114;13.128;2022-12-11T07:33:54;98849.00;;;7.40
12875;BMP180;6505;51.114;13.128;2022-12-11T07:36:23;98855.00;;;7.40
12875;BMP180;6505;51.114;13.128;2022-12-11T07:38:52;98862.00;;;7.40
12875;BMP180;6505;51.114;13.128;2022-12-11T07:41:21;98855.00;;;7.40
12875;BMP180;6505;51.114;13.128;2022-12-11T07:43:53;98859.00;;;7.40
12875;BMP180;6505;51.114;13.128;2022-12-11T07:46:24;98861.00;;;7.40
12875;BMP180;6505;51.114;13.128;2022-12-11T07:48:54;98864.00;;;7.40
12875;BMP180;6505;51.114;13.128;2022-12-11T07:51:25;98858.00;;;7.30
12875;BMP180;6505;51.114;13.128;2022-12-11T07:53:56;98868.00;;;7.30
12875;BMP180;6505;51.114;13.128;2022-12-11T07:56:26;98857.00;;;7.40
12875;BMP180;6505;51.114;13.128;2022-12-11T07:58:57;98872.00;;;7.40
12875;BMP180;6505;51.114;13.128;2022-12-11T08:01:28;98875.00;;;7.30
12875;BMP180;6505;51.114;13.128;2022-12-11T08:03:58;98870.00;;;7.30
12875;BMP180;6505;51.114;13.128;2022-12-11T08:06:29;98867.00;;;7.30
12875;BMP180;6505;51.114;13.128;2022-12-11T08:09:00;98864.00;;;7.30
12875;BMP180;6505;51.114;13.128;2022-12-11T08:11:29;98871.00;;;7.40
12875;BMP180;6505;51.114;13.128;2022-12-11T08:13:58;98873.00;;;7.30
12875;BMP180;6505;51.114;13.128;2022-12-11T08:16:26;98868.00;;;7.30
12875;BMP180;6505;51.114;13.128;2022-12-11T08:18:55;98866.00;;;7.30
12875;BMP180;6505;51.114;13.128;2022-12-11T08:21:26;98864.00;;;7.30
12875;BMP180;6505;51.114;13.128;2022-12-11T08:23:55;98865.00;;;7.30
12875;BMP180;6505;51.114;13.128;2022-12-11T08:26:26;98861.00;;;7.30
12875;BMP180;6505;51.114;13.128;2022-12-11T08:28:55;98859.00;;;7.30
12875;BMP180;6505;51.114;13.128;2022-12-11T08:31:24;98852.00;;;7.30
12875;BMP180;6505;51.114;13.128;2022-12-11T08:33:54;98852.00;;;7.30
12875;BMP180;6505;51.114;13.128;2022-12-11T08:36:25;98858.00;;;7.30
12875;BMP180;6505;51.114;13.128;2022-12-11T08:38:54;98850.00;;;7.30
12875;BMP180;6505;51.114;13.128;2022-12-11T08:41:25;98851.00;;;7.30
12875;BMP180;6505;51.114;13.128;2022-12-11T08:43:55;98853.00;;;7.30
12875;BMP180;6505;51.114;13.128;2022-12-11T08:46:27;98849.00;;;7.30
12875;BMP180;6505;51.114;13.128;2022-12-11T08:48:56;98858.00;;;7.30
12875;BMP180;6505;51.114;13.128;2022-12-11T08:51:29;98853.00;;;7.30
12875;BMP180;6505;51.114;13.128;2022-12-11T08:53:59;98851.00;;;7.30
12875;BMP180;6505;51.114;13.128;2022-12-11T08:56:28;98859.00;;;7.30
12875;BMP180;6505;51.114;13.128;2022-12-11T08:58:59;98851.00;;;7.30
12875;BMP180;6505;51.114;13.128;2022-12-11T09:01:28;98851.00;;;7.30
12875;BMP180;6505;51.114;13.128;2022-12-11T09:03:56;98852.00;;;7.30
12875;BMP180;6505;51.114;13.128;2022-12-11T09:06:28;98861.00;;;7.30
12875;BMP180;6505;51.114;13.128;2022-12-11T09:08:59;98850.00;;;7.30
12875;BMP180;6505;51.114;13.128;2022-12-11T09:11:31;98852.00;;;7.30
12875;BMP180;6505;51.114;13.128;2022-12-11T09:14:00;98856.00;;;7.30
12875;BMP180;6505;51.114;13.128;2022-12-11T09:16:35;98858.00;;;7.30
12875;BMP180;6505;51.114;13.128;2022-12-11T09:19:08;98849.00;;;7.30
12875;BMP180;6505;51.114;13.128;2022-12-11T09:21:39;98849.00;;;7.30
12875;BMP180;6505;51.114;13.128;2022-12-11T09:24:10;98857.00;;;7.30
12875;BMP180;6505;51.114;13.128;2022-12-11T09:26:39;98849.00;;;7.30
12875;BMP180;6505;51.114;13.128;2022-12-11T09:29:09;98853.00;;;7.30
12875;BMP180;6505;51.114;13.128;2022-12-11T09:31:38;98847.00;;;7.30
12875;BMP180;6505;51.114;13.128;2022-12-11T09:34:10;98849.00;;;7.30
12875;BMP180;6505;51.114;13.128;2022-12-11T09:36:41;98857.00;;;7.30
12875;BMP180;6505;51.114;13.128;2022-12-11T09:39:11;98863.00;;;7.30
12875;BMP180;6505;51.114;13.128;2022-12-11T09:41:50;98856.00;;;7.30
12875;BMP180;6505;51.114;13.128;2022-12-11T09:44:31;98850.00;;;7.30
12875;BMP180;6505;51.114;13.128;2022-12-11T09:47:00;98855.00;;;7.30
12875;BMP180;6505;51.114;13.128;2022-12-11T09:49:36;98853.00;;;7.30
12875;BMP180;6505;51.114;13.128;2022-12-11T09:52:12;98858.00;;;7.30
12875;BMP180;6505;51.114;13.128;2022-12-11T09:54:48;98858.00;;;7.30
12875;BMP180;6505;51.114;13.128;2022-12-11T09:57:31;98838.00;;;7.30
12875;BMP180;6505;51.114;13.128;2022-12-11T10:00:27;98856.00;;;7.30
12875;BMP180;6505;51.114;13.128;2022-12-11T10:03:34;98841.00;;;7.30
12875;BMP180;6505;51.114;13.128;2022-12-11T10:06:20;98840.00;;;7.20
12875;BMP180;6505;51.114;13.128;2022-12-11T10:09:02;98835.00;;;7.30
12875;BMP180;6505;51.114;13.128;2022-12-11T10:11:52;98837.00;;;7.30
12875;BMP180;6505;51.114;13.128;2022-12-11T10:14:38;98839.00;;;7.30
12875;BMP180;6505;51.114;13.128;2022-12-11T10:17:18;98828.00;;;7.20
12875;BMP180;6505;51.114;13.128;2022-12-11T10:19:48;98831.00;;;7.30
12875;BMP180;6505;51.114;13.128;2022-12-11T10:22:20;98829.00;;;7.30
12875;BMP180;6505;51.114;13.128;2022-12-11T10:24:55;98826.00;;;7.30
12875;BMP180;6505;51.114;13.128;2022-12-11T10:27:39;98822.00;;;7.30
12875;BMP180;6505;51.114;13.128;2022-12-11T10:30:15;98828.00;;;7.30
12875;BMP180;6505;51.114;13.128;2022-12-11T10:33:02;98825.00;;;7.30
12875;BMP180;6505;51.114;13.128;2022-12-11T10:35:38;98823.00;;;7.30
12875;BMP180;6505;51.114;13.128;2022-12-11T10:38:16;98824.00;;;7.30
12875;BMP180;6505;51.114;13.128;2022-12-11T10:40:50;98829.00;;;7.30
12875;BMP180;6505;51.114;13.128;2022-12-11T10:43:19;98827.00;;;7.30
12875;BMP180;6505;51.114;13.128;2022-12-11T10:45:52;98827.00;;;7.30
12875;BMP180;6505;51.114;13.128;2022-12-11T10:48:21;98817.00;;;7.30
12875;BMP180;6505;51.114;13.128;2022-12-11T10:50:59;98818.00;;;7.30
12875;BMP180;6505;51.114;13.128;2022-12-11T10:53:29;98814.00;;;7.40
12875;BMP180;6505;51.114;13.128;2022-12-11T10:55:59;98812.00;;;7.40
12875;BMP180;6505;51.114;13.128;2022-12-11T10:58:31;98810.00;;;7.40
12875;BMP180;6505;51.114;13.128;2022-12-11T11:01:10;98799.00;;;7.40
12875;BMP180;6505;51.114;13.128;2022-12-11T11:03:54;98786.00;;;7.30
12875;BMP180;6505;51.114;13.128;2022-12-11T11:06:25;98811.00;;;7.40
12875;BMP180;6505;51.114;13.128;2022-12-11T11:08:55;98801.00;;;7.40
12875;BMP180;6505;51.114;13.128;2022-12-11T11:11:28;98801.00;;;7.40
12875;BMP180;6505;51.114;13.128;2022-12-11T11:14:15;98801.00;;;7.40
12875;BMP180;6505;51.114;13.128;2022-12-11T11:16:46;98786.00;;;7.40
12875;BMP180;6505;51.114;13.128;2022-12-11T11:19:22;98800.00;;;7.40
12875;BMP180;6505;51.114;13.128;2022-12-11T11:21:55;98800.00;;;7.40
12875;BMP180;6505;51.114;13.128;2022-12-11T11:24:30;98787.00;;;7.40
12875;BMP180;6505;51.114;13.128;2022-12-11T11:27:05;98781.00;;;7.40
12875;BMP180;6505;51.114;13.128;2022-12-11T11:29:40;98784.00;;;7.40
12875;BMP180;6505;51.114;13.128;2022-12-11T11:32:19;98780.00;;;7.40
12875;BMP180;6505;51.114;13.128;2022-12-11T11:34:49;98781.00;;;7.40
12875;BMP180;6505;51.114;13.128;2022-12-11T11:37:30;98781.00;;;7.40
12875;BMP180;6505;51.114;13.128;2022-12-11T11:40:06;98770.00;;;7.40
12875;BMP180;6505;51.114;13.128;2022-12-11T11:42:49;98768.00;;;7.40
12875;BMP180;6505;51.114;13.128;2022-12-11T11:45:25;98762.00;;;7.40
12875;BMP180;6505;51.114;13.128;2022-12-11T11:48:10;98761.00;;;7.40
12875;BMP180;6505;51.114;13.128;2022-12-11T11:50:45;98760.00;;;7.40
12875;BMP180;6505;51.114;13.128;2022-12-11T11:53:21;98763.00;;;7.40
12875;BMP180;6505;51.114;13.128;2022-12-11T11:56:02;98741.00;;;7.40
12875;BMP180;6505;51.114;13.128;2022-12-11T11:58:40;98751.00;;;7.40
12875;BMP180;6505;51.114;13.128;2022-12-11T12:01:15;98748.00;;;7.40
12875;BMP180;6505;51.114;13.128;2022-12-11T12:03:46;98722.00;;;7.40
12875;BMP180;6505;51.114;13.128;2022-12-11T12:06:30;98748.00;;;7.40
12875;BMP180;6505;51.114;13.128;2022-12-11T12:09:14;98749.00;;;7.40
12875;BMP180;6505;51.114;13.128;2022-12-11T12:11:52;98753.00;;;7.40
12875;BMP180;6505;51.114;13.128;2022-12-11T12:14:32;98745.00;;;7.40
12875;BMP180;6505;51.114;13.128;2022-12-11T12:17:27;98752.00;;;7.40
12875;BMP180;6505;51.114;13.128;2022-12-11T12:20:09;98733.00;;;7.40
12875;BMP180;6505;51.114;13.128;2022-12-11T12:23:02;98747.00;;;7.40
12875;BMP180;6505;51.114;13.128;2022-12-11T12:25:41;98743.00;;;7.40
12875;BMP180;6505;51.114;13.128;2022-12-11T12:28:23;98745.00;;;7.40
12875;BMP180;6505;51.114;13.128;2022-12-11T12:31:11;98746.00;;;7.40
12875;BMP180;6505;51.114;13.128;2022-12-11T12:33:53;98734.00;;;7.40
12875;BMP180;6505;51.114;13.128;2022-12-11T12:36:32;98737.00;;;7.50
12875;BMP180;6505;51.114;13.128;2022-12-11T12:39:18;98740.00;;;7.40
12875;BMP180;6505;51.114;13.128;2022-12-11T12:41:55;98737.00;;;7.40
12875;BMP180;6505;51.114;13.128;2022-12-11T12:44:42;98735.00;;;7.40
12875;BMP180;6505;51.114;13.128;2022-12-11T12:47:17;98730.00;;;7.40
12875;BMP180;6505;51.114;13.128;2022-12-11T12:49:49;98730.00;;;7.40
12875;BMP180;6505;51.114;13.128;2022-12-11T12:52:21;98729.00;;;7.50
12875;BMP180;6505;51.114;13.128;2022-12-11T12:54:55;98720.00;;;7.50
12875;BMP180;6505;51.114;13.128;2022-12-11T12:57:49;98717.00;;;7.50
12875;BMP180;6505;51.114;13.128;2022-12-11T13:00:32;98709.00;;;7.40
12875;BMP180;6505;51.114;13.128;2022-12-11T13:03:13;98711.00;;;7.40
12875;BMP180;6505;51.114;13.128;2022-12-11T13:05:44;98716.00;;;7.50
12875;BMP180;6505;51.114;13.128;2022-12-11T13:08:24;98716.00;;;7.50
12875;BMP180;6505;51.114;13.128;2022-12-11T13:11:01;98716.00;;;7.40
12875;BMP180;6505;51.114;13.128;2022-12-11T13:13:34;98714.00;;;7.50
12875;BMP180;6505;51.114;13.128;2022-12-11T13:16:24;98711.00;;;7.40
12875;BMP180;6505;51.114;13.128;2022-12-11T13:18:54;98723.00;;;7.50
12875;BMP180;6505;51.114;13.128;2022-12-11T13:21:29;98718.00;;;7.40
12875;BMP180;6505;51.114;13.128;2022-12-11T13:24:25;98703.00;;;7.40
12875;BMP180;6505;51.114;13.128;2022-12-11T13:26:54;98726.00;;;7.40
12875;BMP180;6505;51.114;13.128;2022-12-11T13:29:31;98726.00;;;7.40
12875;BMP180;6505;51.114;13.128;2022-12-11T13:32:02;98715.00;;;7.40
12875;BMP180;6505;51.114;13.128;2022-12-11T13:34:38;98727.00;;;7.40
12875;BMP180;6505;51.114;13.128;2022-12-11T13:37:23;98734.00;;;7.40
12875;BMP180;6505;51.114;13.128;2022-12-11T13:39:52;98733.00;;;7.40
12875;BMP180;6505;51.114;13.128;2022-12-11T13:42:27;98736.00;;;7.40
12875;BMP180;6505;51.114;13.128;2022-12-11T13:44:56;98725.00;;;7.40
12875;BMP180;6505;51.114;13.128;2022-12-11T13:47:26;98730.00;;;7.40
12875;BMP180;6505;51.114;13.128;2022-12-11T13:50:13;98726.00;;;7.40
12875;BMP180;6505;51.114;13.128;2022-12-11T13:52:52;98724.00;;;7.40
12875;BMP180;6505;51.114;13.128;2022-12-11T13:55:24;98728.00;;;7.40
12875;BMP180;6505;51.114;13.128;2022-12-11T13:57:52;98730.00;;;7.40
12875;BMP180;6505;51.114;13.128;2022-12-11T14:00:23;98713.00;;;7.40
12875;BMP180;6505;51.114;13.128;2022-12-11T14:02:55;98732.00;;;7.40
12875;BMP180;6505;51.114;13.128;2022-12-11T14:05:26;98731.00;;;7.40
12875;BMP180;6505;51.114;13.128;2022-12-11T14:07:57;98719.00;;;7.40
12875;BMP180;6505;51.114;13.128;2022-12-11T14:10:29;98736.00;;;7.40
12875;BMP180;6505;51.114;13.128;2022-12-11T14:13:02;98737.00;;;7.40
12875;BMP180;6505;51.114;13.128;2022-12-11T14:15:32;98731.00;;;7.40
12875;BMP180;6505;51.114;13.128;2022-12-11T14:18:04;98735.00;;;7.40
12875;BMP180;6505;51.114;13.128;2022-12-11T14:20:33;98731.00;;;7.40
12875;BMP180;6505;51.114;13.128;2022-12-11T14:23:06;98735.00;;;7.30
12875;BMP180;6505;51.114;13.128;2022-12-11T14:25:35;98737.00;;;7.40
12875;BMP180;6505;51.114;13.128;2022-12-11T14:28:12;98732.00;;;7.40
12875;BMP180;6505;51.114;13.128;2022-12-11T14:30:48;98725.00;;;7.40
12875;BMP180;6505;51.114;13.128;2022-12-11T14:33:20;98730.00;;;7.40
12875;BMP180;6505;51.114;13.128;2022-12-11T14:35:53;98733.00;;;7.30
12875;BMP180;6505;51.114;13.128;2022-12-11T14:38:27;98726.00;;;7.30
12875;BMP180;6505;51.114;13.128;2022-12-11T14:41:03;98726.00;;;7.30
12875;BMP180;6505;51.114;13.128;2022-12-11T14:43:37;98731.00;;;7.30
12875;BMP180;6505;51.114;13.128;2022-12-11T14:46:15;98732.00;;;7.30
12875;BMP180;6505;51.114;13.128;2022-12-11T14:48:48;98732.00;;;7.30
12875;BMP180;6505;51.114;13.128;2022-12-11T14:51:30;98727.00;;;7.30
12875;BMP180;6505;51.114;13.128;2022-12-11T14:54:03;98739.00;;;7.30
12875;BMP180;6505;51.114;13.128;2022-12-11T14:56:31;98737.00;;;7.30
12875;BMP180;6505;51.114;13.128;2022-12-11T14:59:04;98744.00;;;7.30